createdAt,value
2023-02-27T00:00:18.113Z,1.73
2023-02-27T00:03:24.004Z,1.76
2023-02-27T00:06:31.963Z,1.76
2023-02-27T00:09:38.319Z,1.77
2023-02-27T00:12:46.595Z,1.74
2023-02-27T00:15:56.646Z,1.65
2023-02-27T00:19:05.007Z,1.59
2023-02-27T00:22:10.955Z,1.53
2023-02-27T00:25:20.280Z,1.43
2023-02-27T00:28:26.714Z,1.38
2023-02-27T00:31:36.553Z,1.35
2023-02-27T00:34:42.471Z,1.37
2023-02-27T00:37:50.575Z,1.30
2023-02-27T00:40:56.750Z,1.29
2023-02-27T00:44:03.369Z,1.28
2023-02-27T00:47:12.019Z,1.28
2023-02-27T00:50:20.002Z,1.22
2023-02-27T00:53:26.345Z,1.19
2023-02-27T00:56:34.810Z,1.14
2023-02-27T00:59:40.740Z,1.06
2023-02-27T01:02:50.206Z,0.94
2023-02-27T01:05:56.164Z,0.96
2023-02-27T01:09:05.038Z,0.89
2023-02-27T01:12:11.444Z,0.76
2023-02-27T01:15:18.324Z,0.73
2023-02-27T01:18:28.430Z,0.69
2023-02-27T01:21:35.474Z,0.64
2023-02-27T01:24:41.551Z,0.64
2023-02-27T01:27:48.218Z,0.68
2023-02-27T01:30:55.313Z,0.68
2023-02-27T01:34:04.545Z,0.65
2023-02-27T01:37:10.630Z,0.68
2023-02-27T01:40:17.815Z,0.75
2023-02-27T01:43:26.333Z,0.80
2023-02-27T01:46:35.797Z,0.84
2023-02-27T01:49:44.473Z,0.91
2023-02-27T01:53:00.274Z,1.06
2023-02-27T01:56:13.244Z,1.28
2023-02-27T01:59:22.640Z,1.42
2023-02-27T02:02:37.898Z,1.52
2023-02-27T02:05:49.792Z,1.63
2023-02-27T02:09:01.109Z,1.70
2023-02-27T02:12:09.826Z,1.84
2023-02-27T02:15:16.070Z,1.87
2023-02-27T02:18:35.338Z,1.76
2023-02-27T02:22:54.464Z,1.89
2023-02-27T02:26:34.817Z,1.86
2023-02-27T02:30:50.673Z,1.80
2023-02-27T02:34:54.360Z,1.88
2023-02-27T02:38:42.794Z,1.92
2023-02-27T02:42:06.775Z,1.85
2023-02-27T02:45:26.064Z,1.87
2023-02-27T02:48:44.645Z,1.83
2023-02-27T02:52:03.797Z,1.79
2023-02-27T02:55:25.154Z,1.78
2023-02-27T02:58:41.530Z,1.76
2023-02-27T03:01:56.838Z,1.79
2023-02-27T03:05:12.480Z,1.81
2023-02-27T03:08:27.787Z,1.81
2023-02-27T03:11:45.206Z,1.89
2023-02-27T03:15:07.336Z,1.88
2023-02-27T03:18:20.939Z,1.83
2023-02-27T03:21:39.986Z,1.81
2023-02-27T03:24:54.743Z,1.73
2023-02-27T03:28:13.650Z,1.70
2023-02-27T03:31:34.132Z,1.69
2023-02-27T03:34:45.601Z,1.68
2023-02-27T03:38:06.480Z,1.68
2023-02-27T03:41:30.251Z,1.67
2023-02-27T03:45:08.258Z,1.72
2023-02-27T03:48:15.948Z,1.74
2023-02-27T03:51:28.085Z,1.73
2023-02-27T03:54:49.009Z,1.72
2023-02-27T03:57:56.545Z,1.64
2023-02-27T04:01:06.291Z,1.61
2023-02-27T04:04:17.733Z,1.64
2023-02-27T04:08:05.901Z,1.66
2023-02-27T04:11:38.254Z,1.68
2023-02-27T04:15:06.719Z,1.65
2023-02-27T04:18:33.408Z,1.64
2023-02-27T04:21:52.891Z,1.69
2023-02-27T04:25:13.901Z,1.75
2023-02-27T04:28:27.965Z,1.78
2023-02-27T04:31:48.433Z,1.83
2023-02-27T04:35:05.063Z,1.87
2023-02-27T04:38:24.273Z,1.86
2023-02-27T04:41:40.235Z,1.79
2023-02-27T04:44:50.880Z,1.72
2023-02-27T04:48:06.341Z,1.61
2023-02-27T04:51:21.893Z,1.73
2023-02-27T04:54:37.159Z,1.75
2023-02-27T04:57:52.666Z,1.75
2023-02-27T05:01:08.150Z,1.76
2023-02-27T05:04:21.559Z,1.76
2023-02-27T05:07:42.529Z,1.69
2023-02-27T05:10:58.930Z,1.80
2023-02-27T05:14:17.672Z,1.89
2023-02-27T05:17:34.488Z,1.96
2023-02-27T05:20:57.387Z,1.97
2023-02-27T05:24:23.024Z,1.95
2023-02-27T05:27:41.698Z,1.95
2023-02-27T05:30:59.873Z,1.95
2023-02-27T05:34:17.947Z,1.95
2023-02-27T05:37:34.127Z,1.88
2023-02-27T05:40:50.410Z,1.86
2023-02-27T05:44:08.124Z,1.82
2023-02-27T05:47:23.435Z,1.82
2023-02-27T05:50:35.000Z,1.77
2023-02-27T05:53:50.194Z,1.77
2023-02-27T05:57:04.643Z,1.80
2023-02-27T06:00:23.004Z,1.77
2023-02-27T06:03:31.261Z,1.69
2023-02-27T06:06:40.986Z,1.73
2023-02-27T06:09:48.818Z,1.75
2023-02-27T06:12:58.684Z,1.72
2023-02-27T06:16:07.442Z,1.73
2023-02-27T06:19:13.979Z,1.63
2023-02-27T06:22:19.713Z,1.62
2023-02-27T06:25:26.278Z,1.55
2023-02-27T06:28:34.644Z,1.59
2023-02-27T06:31:41.143Z,1.57
2023-02-27T06:34:46.951Z,1.58
2023-02-27T06:37:53.548Z,1.60
2023-02-27T06:40:59.378Z,1.61
2023-02-27T06:44:08.654Z,1.58
2023-02-27T06:47:14.379Z,1.64
2023-02-27T06:50:21.148Z,1.78
2023-02-27T06:53:28.126Z,1.88
2023-02-27T06:56:34.778Z,1.99
2023-02-27T06:59:43.249Z,1.93
2023-02-27T07:02:49.875Z,1.94
2023-02-27T07:05:55.796Z,1.96
2023-02-27T07:09:06.650Z,1.94
2023-02-27T07:12:13.051Z,1.97
2023-02-27T07:15:22.444Z,1.95
2023-02-27T07:18:28.715Z,1.92
2023-02-27T07:21:35.274Z,1.96
2023-02-27T07:24:42.195Z,2.04
2023-02-27T07:27:50.900Z,2.10
2023-02-27T07:31:00.005Z,2.15
2023-02-27T07:34:06.994Z,2.16
2023-02-27T07:37:15.121Z,2.16
2023-02-27T07:40:22.403Z,2.27
2023-02-27T07:43:29.021Z,2.33
2023-02-27T07:46:39.066Z,2.38
2023-02-27T07:49:44.795Z,2.49
2023-02-27T07:52:52.422Z,2.71
2023-02-27T07:55:58.482Z,2.89
2023-02-27T07:59:05.188Z,3.15
2023-02-27T08:02:15.800Z,3.33
2023-02-27T08:05:22.538Z,3.40
2023-02-27T08:08:28.621Z,3.49
2023-02-27T08:11:35.305Z,3.54
2023-02-27T08:14:41.360Z,3.59
2023-02-27T08:17:51.538Z,3.73
2023-02-27T08:20:59.246Z,3.74
2023-02-27T08:24:05.832Z,3.70
2023-02-27T08:27:11.825Z,3.62
2023-02-27T08:30:19.043Z,3.62
2023-02-27T08:33:29.228Z,3.60
2023-02-27T08:36:35.964Z,3.70
2023-02-27T08:39:41.841Z,3.88
2023-02-27T08:42:48.543Z,4.04
2023-02-27T08:45:54.928Z,4.16
2023-02-27T08:49:04.168Z,4.30
2023-02-27T08:52:10.056Z,4.42
2023-02-27T08:55:16.656Z,4.46
2023-02-27T08:58:23.068Z,4.39
2023-02-27T09:01:34.582Z,4.25
2023-02-27T09:04:43.217Z,4.10
2023-02-27T09:07:50.048Z,3.92
2023-02-27T09:11:00.244Z,3.78
2023-02-27T09:14:07.568Z,3.66
2023-02-27T09:17:13.356Z,3.56
2023-02-27T09:20:23.048Z,3.47
2023-02-27T09:23:29.002Z,3.36
2023-02-27T09:26:44.311Z,3.60
2023-02-27T09:29:55.546Z,3.72
2023-02-27T09:33:02.421Z,3.63
2023-02-27T09:36:12.441Z,3.67
2023-02-27T09:39:19.308Z,3.76
2023-02-27T09:42:31.392Z,3.79
2023-02-27T09:45:41.937Z,3.77
2023-02-27T09:48:55.921Z,3.72
2023-02-27T09:52:06.335Z,3.68
2023-02-27T09:55:23.373Z,3.69
2023-02-27T09:58:49.301Z,3.68
2023-02-27T10:02:08.636Z,3.59
2023-02-27T10:05:34.744Z,3.66
2023-02-27T10:09:02.732Z,3.74
2023-02-27T10:12:34.488Z,3.82
2023-02-27T10:15:49.310Z,3.86
2023-02-27T10:19:03.098Z,4.23
2023-02-27T10:22:21.736Z,4.40
2023-02-27T10:25:32.724Z,4.38
2023-02-27T10:28:38.691Z,4.20
2023-02-27T10:31:51.535Z,3.94
2023-02-27T10:35:11.478Z,3.75
2023-02-27T10:38:27.131Z,3.53
2023-02-27T10:41:36.195Z,3.43
2023-02-27T10:44:42.960Z,3.48
2023-02-27T10:47:48.962Z,3.53
2023-02-27T10:50:56.252Z,3.56
2023-02-27T10:54:19.864Z,3.66
2023-02-27T10:57:40.847Z,3.70
2023-02-27T11:00:59.434Z,3.66
2023-02-27T11:04:06.045Z,3.65
2023-02-27T11:07:18.622Z,3.59
2023-02-27T11:10:31.275Z,3.53
2023-02-27T11:13:42.793Z,3.64
2023-02-27T11:16:55.021Z,3.80
2023-02-27T11:20:06.174Z,3.78
2023-02-27T11:23:21.181Z,3.96
2023-02-27T11:26:34.052Z,4.44
2023-02-27T11:30:01.044Z,4.82
2023-02-27T11:33:07.382Z,4.95
2023-02-27T11:36:15.698Z,5.08
2023-02-27T11:39:36.215Z,5.05
2023-02-27T11:42:51.545Z,5.00
2023-02-27T11:46:30.042Z,4.85
2023-02-27T11:49:50.219Z,4.71
2023-02-27T11:53:17.504Z,4.60
2023-02-27T11:56:30.075Z,4.41
2023-02-27T11:59:52.499Z,4.24
2023-02-27T12:03:16.589Z,4.18
2023-02-27T12:06:33.136Z,4.31
2023-02-27T12:09:49.562Z,4.56
2023-02-27T12:13:06.133Z,4.84
2023-02-27T12:16:25.938Z,4.94
2023-02-27T12:19:45.612Z,5.09
2023-02-27T12:22:57.691Z,5.28
2023-02-27T12:26:16.470Z,5.37
2023-02-27T12:29:35.869Z,5.46
2023-02-27T12:32:50.373Z,5.75
2023-02-27T12:36:06.481Z,6.03
2023-02-27T12:39:23.097Z,6.38
2023-02-27T12:43:02.633Z,7.02
2023-02-27T12:46:42.595Z,7.76
2023-02-27T12:50:04.818Z,8.19
2023-02-27T12:53:44.103Z,8.55
2023-02-27T12:57:09.244Z,8.42
2023-02-27T13:00:21.254Z,8.20
2023-02-27T13:03:39.488Z,8.00
2023-02-27T13:07:01.137Z,7.79
2023-02-27T13:10:25.803Z,7.46
2023-02-27T13:13:45.025Z,7.22
2023-02-27T13:17:02.553Z,6.99
2023-02-27T13:20:35.272Z,6.72
2023-02-27T13:23:59.357Z,6.42
2023-02-27T13:27:22.475Z,6.05
2023-02-27T13:30:39.389Z,6.00
2023-02-27T13:33:58.688Z,6.13
2023-02-27T13:37:09.278Z,6.13
2023-02-27T13:40:39.533Z,6.14
2023-02-27T13:43:52.376Z,6.18
2023-02-27T13:47:18.968Z,6.08
2023-02-27T13:50:55.528Z,5.94
2023-02-27T13:54:22.826Z,5.80
2023-02-27T13:57:33.014Z,5.75
2023-02-27T14:00:42.301Z,5.62
2023-02-27T14:03:59.580Z,5.62
2023-02-27T14:07:12.145Z,5.45
2023-02-27T14:10:27.537Z,5.35
2023-02-27T14:14:12.085Z,5.24
2023-02-27T14:17:45.416Z,5.14
2023-02-27T14:20:54.633Z,5.10
2023-02-27T14:24:01.639Z,5.27
2023-02-27T14:27:21.327Z,5.23
2023-02-27T14:30:36.337Z,5.26
2023-02-27T14:33:54.212Z,5.25
2023-02-27T14:37:08.982Z,4.98
2023-02-27T14:40:29.877Z,4.75
2023-02-27T14:43:43.671Z,4.61
2023-02-27T14:46:53.070Z,4.44
2023-02-27T14:50:04.548Z,4.35
2023-02-27T14:53:24.397Z,4.29
2023-02-27T14:56:31.212Z,4.20
2023-02-27T14:59:46.688Z,4.11
2023-02-27T15:02:53.622Z,4.02
2023-02-27T15:06:08.132Z,3.88
2023-02-27T15:09:28.528Z,3.77
2023-02-27T15:12:40.307Z,3.70
2023-02-27T15:15:48.832Z,3.64
2023-02-27T15:18:58.847Z,3.59
2023-02-27T15:22:37.691Z,3.52
2023-02-27T15:25:44.726Z,3.73
2023-02-27T15:28:53.206Z,3.81
2023-02-27T15:31:59.040Z,3.80
2023-02-27T15:35:17.852Z,3.80
2023-02-27T15:38:34.196Z,3.74
2023-02-27T15:41:42.529Z,3.62
2023-02-27T15:44:53.049Z,3.57
2023-02-27T15:48:00.561Z,3.52
2023-02-27T15:51:07.923Z,3.47
2023-02-27T15:54:17.867Z,3.35
2023-02-27T15:57:26.709Z,3.30
2023-02-27T16:00:37.859Z,3.23
2023-02-27T16:03:49.866Z,3.16
2023-02-27T16:07:10.760Z,3.14
2023-02-27T16:10:27.693Z,2.98
2023-02-27T16:13:41.607Z,3.07
2023-02-27T16:16:58.844Z,3.16
2023-02-27T16:20:39.225Z,3.09
2023-02-27T16:23:46.479Z,3.01
2023-02-27T16:26:56.660Z,2.92
2023-02-27T16:30:05.149Z,2.78
2023-02-27T16:33:27.156Z,2.63
2023-02-27T16:36:36.011Z,2.52
2023-02-27T16:39:42.689Z,2.42
2023-02-27T16:42:52.485Z,2.38
2023-02-27T16:45:59.301Z,2.37
2023-02-27T16:49:19.168Z,2.24
2023-02-27T16:52:26.463Z,2.32
2023-02-27T16:55:33.649Z,2.48
2023-02-27T16:58:43.110Z,2.54
2023-02-27T17:01:48.823Z,2.42
2023-02-27T17:04:55.638Z,2.24
2023-02-27T17:08:01.452Z,2.14
2023-02-27T17:11:08.447Z,2.13
2023-02-27T17:14:17.168Z,2.06
2023-02-27T17:17:23.827Z,2.01
2023-02-27T17:20:30.350Z,1.96
2023-02-27T17:23:36.964Z,1.82
2023-02-27T17:26:42.737Z,1.70
2023-02-27T17:29:51.948Z,1.65
2023-02-27T17:32:59.913Z,1.54
2023-02-27T17:36:13.837Z,1.46
2023-02-27T17:39:20.253Z,1.47
2023-02-27T17:42:27.209Z,1.46
2023-02-27T17:45:35.957Z,1.47
2023-02-27T17:48:42.904Z,1.48
2023-02-27T17:51:48.612Z,1.50
2023-02-27T17:54:55.768Z,1.57
2023-02-27T17:58:01.805Z,1.56
2023-02-27T18:01:14.957Z,1.60
2023-02-27T18:04:20.885Z,1.63
2023-02-27T18:07:27.703Z,1.64
2023-02-27T18:10:33.642Z,1.63
2023-02-27T18:13:40.590Z,1.65
2023-02-27T18:16:48.990Z,1.59
2023-02-27T18:19:55.860Z,1.62
2023-02-27T18:23:01.764Z,1.71
2023-02-27T18:26:17.223Z,1.84
2023-02-27T18:29:29.924Z,1.96
2023-02-27T18:32:39.287Z,2.05
2023-02-27T18:35:45.281Z,2.11
2023-02-27T18:38:52.099Z,2.10
2023-02-27T18:41:58.566Z,2.16
2023-02-27T18:45:05.034Z,2.17
2023-02-27T18:48:16.104Z,2.10
2023-02-27T18:51:23.002Z,2.08
2023-02-27T18:54:31.737Z,2.07
2023-02-27T18:57:38.617Z,2.07
2023-02-27T19:00:45.233Z,2.06
2023-02-27T19:04:00.258Z,1.96
2023-02-27T19:07:06.225Z,1.97
2023-02-27T19:10:15.241Z,1.93
2023-02-27T19:13:21.192Z,1.90
2023-02-27T19:16:28.412Z,1.97
2023-02-27T19:19:37.571Z,1.99
2023-02-27T19:22:44.325Z,2.06
2023-02-27T19:25:50.461Z,2.02
2023-02-27T19:28:58.662Z,1.89
2023-02-27T19:32:07.650Z,1.99
2023-02-27T19:35:17.089Z,2.02
2023-02-27T19:38:22.812Z,2.01
2023-02-27T19:41:33.342Z,1.99
2023-02-27T19:44:40.550Z,1.96
2023-02-27T19:47:48.032Z,1.95
2023-02-27T19:50:56.580Z,2.03
2023-02-27T19:54:03.711Z,1.85
2023-02-27T19:57:12.152Z,1.98
2023-02-27T20:00:21.529Z,2.01
2023-02-27T20:03:29.227Z,1.97
2023-02-27T20:06:42.318Z,1.96
2023-02-27T20:09:48.337Z,2.00
2023-02-27T20:12:55.375Z,2.10
2023-02-27T20:16:05.468Z,2.05
2023-02-27T20:19:18.301Z,2.08
2023-02-27T20:22:27.205Z,2.05
2023-02-27T20:25:34.012Z,1.99
2023-02-27T20:28:39.947Z,2.07
2023-02-27T20:31:50.399Z,2.12
2023-02-27T20:34:57.337Z,2.16
2023-02-27T20:38:06.537Z,2.09
2023-02-27T20:41:15.469Z,1.99
2023-02-27T20:44:24.220Z,1.96
2023-02-27T20:47:32.359Z,1.93
2023-02-27T20:50:39.098Z,1.98
2023-02-27T20:53:50.705Z,2.07
2023-02-27T20:56:57.609Z,2.20
2023-02-27T21:00:05.127Z,2.26
2023-02-27T21:03:11.979Z,2.35
2023-02-27T21:06:20.526Z,2.42
2023-02-27T21:09:29.904Z,2.40
2023-02-27T21:12:36.473Z,2.44
2023-02-27T21:15:43.124Z,2.42
2023-02-27T21:18:51.522Z,2.47
2023-02-27T21:21:58.381Z,2.53
2023-02-27T21:25:07.174Z,2.55
2023-02-27T21:28:14.622Z,2.64
2023-02-27T21:31:23.990Z,2.58
2023-02-27T21:34:32.559Z,2.54
2023-02-27T21:37:38.522Z,2.56
2023-02-27T21:40:51.325Z,2.57
2023-02-27T21:44:02.146Z,2.52
2023-02-27T21:47:11.397Z,2.53
2023-02-27T21:50:18.743Z,2.54
2023-02-27T21:53:28.689Z,2.47
2023-02-27T21:56:37.563Z,2.41
2023-02-27T21:59:44.728Z,2.30
2023-02-27T22:02:51.217Z,2.21
2023-02-27T22:05:58.313Z,2.07
2023-02-27T22:09:09.050Z,2.04
2023-02-27T22:12:18.528Z,1.99
2023-02-27T22:15:24.944Z,1.95
2023-02-27T22:18:33.018Z,1.91
2023-02-27T22:21:41.716Z,1.93
2023-02-27T22:24:48.895Z,1.88
2023-02-27T22:27:57.807Z,1.88
2023-02-27T22:31:17.237Z,1.88
2023-02-27T22:34:23.566Z,1.87
2023-02-27T22:37:30.777Z,1.87
2023-02-27T22:40:36.791Z,1.89
2023-02-27T22:43:48.887Z,1.83
2023-02-27T22:46:55.454Z,1.92
2023-02-27T22:50:02.295Z,1.91
2023-02-27T22:53:08.131Z,1.87
2023-02-27T22:56:18.064Z,1.86
2023-02-27T22:59:27.155Z,1.85
2023-02-27T23:02:34.035Z,1.86
2023-02-27T23:05:39.809Z,1.94
2023-02-27T23:08:47.824Z,2.03
2023-02-27T23:11:54.016Z,2.09
2023-02-27T23:15:03.337Z,2.13
2023-02-27T23:18:09.850Z,2.14
2023-02-27T23:21:19.403Z,2.17
2023-02-27T23:24:25.213Z,2.17
2023-02-27T23:27:31.851Z,1.94
2023-02-27T23:30:40.631Z,1.89
2023-02-27T23:33:47.307Z,1.78
2023-02-27T23:36:53.135Z,1.69
2023-02-27T23:39:59.736Z,1.67
2023-02-27T23:43:05.596Z,1.69
2023-02-27T23:46:17.997Z,1.76
2023-02-27T23:49:24.115Z,1.88
2023-02-27T23:52:31.055Z,2.00
2023-02-27T23:55:40.693Z,2.13
2023-02-27T23:58:47.580Z,2.29
